Atlantic City, Wyoming
Current Conditions -  °F | °C
As of 6:55 PM on Saturday 25 Oct 2014 (Local Time) from KFWZ Reporting Station
Clear Clear  
Wind Chill: 52°   Ceiling: Unl
Heat Index: 52°   Visibility: 10mi
Dew Point: 19°   Wind: 9mph
Humidity: 28%   Direction: 220°SW
Pressure: 30.05"   Gusts: NA
Location:  42.6143°N, 108.586°W
Report Text: KFWZ 260055Z AUTO 22008KT 10SM CLR 11/M07 A3005 RMK AO2
Loading
Personal Weather Stations






























Interactive Weather Map
Tropical Storm Tracking
New forecast layout! Learn more

10-Day Weather Forecast

Advertisements
Track Severe Weather on mobile